Date,TemperatureHighF,TemperatureAvgF,TemperatureLowF,DewpointHighF,DewpointAvgF,DewpointLowF,HumidityHigh,HumidityAvg,HumidityLow,PressureMaxIn,PressureMinIn,WindSpeedMaxMPH,WindSpeedAvgMPH,GustSpeedMaxMPH,PrecipitationSumIn
2013-11-1,64.6,59.8,55.8,60.9,58.8,55.2,99,97,86,29.91,29.66,2,0,13,0.58
2013-11-2,61.8,53.8,48.3,56.0,42.8,36.2,98,67,43,29.96,29.74,3,1,18,0.00
2013-11-3,57.7,47.6,42.4,38.2,35.8,30.4,79,65,36,30.35,29.97,5,2,22,0.00
2013-11-4,54.2,46.2,41.4,35.9,32.8,30.7,78,60,44,30.52,30.38,1,1,11,0.08
2013-11-6,63.6,54.5,49.6,53.5,50.4,47.2,96,86,69,30.45,30.16,1,0,6,0.00
2013-11-7,59.0,51.7,40.6,55.5,45.6,33.3,97,80,59,30.14,30.00,5,2,20,0.01
2013-11-8,53.0,42.5,33.9,31.4,24.4,18.1,76,52,25,30.34,30.13,4,2,22,0.00
2013-11-9,51.8,42.9,35.7,34.8,28.3,22.7,68,56,45,30.40,30.26,1,0,7,0.00
2013-11-10,67.0,54.6,47.5,35.7,30.3,24.4,49,40,26,30.28,30.18,7,3,20,0.00
2013-11-11,57.7,48.8,40.9,31.4,27.0,19.8,54,43,32,30.33,30.20,6,1,22,0.00
2013-11-12,53.1,44.8,31.4,36.6,29.1,25.0,78,56,35,30.25,30.10,17,4,26,0.10
2013-11-15,50.4,46.8,41.2,48.0,32.7,15.3,97,62,31,30.37,30.23,0,0,5,0.02
2013-11-16,58.4,51.4,48.3,56.4,50.7,47.8,98,97,93,30.30,30.22,0,0,4,0.00
2013-11-17,58.8,54.9,52.9,58.5,54.4,52.1,99,98,97,30.24,29.95,0,0,4,0.04
2013-11-18,65.8,56.3,45.5,58.4,44.3,31.0,99,66,37,29.97,29.88,4,2,18,0.01
2013-11-19,52.3,43.5,37.9,31.9,26.8,22.5,62,52,38,30.24,29.98,8,3,34,0.00
2013-11-20,47.2,40.0,33.9,31.3,27.9,24.9,76,62,45,30.46,30.26,2,1,40,0.00
2013-11-21,50.2,45.4,39.5,49.6,42.3,30.6,98,89,68,30.49,30.40,2,1,12,0.08
2013-11-22,56.3,52.7,49.4,56.0,52.3,48.9,99,99,98,30.42,30.16,1,0,7,0.21
2013-11-23,55.6,52.5,48.1,55.3,50.6,44.4,99,93,87,30.15,30.09,9,4,16,0.00
2013-11-24,34.9,28.2,21.6,23.6,11.6,4.5,71,51,32,30.54,30.16,5,3,26,0.00
2013-11-25,36.5,28.7,21.5,23.1,11.0,7.1,70,48,31,30.60,30.40,1,0,5,0.00
2013-11-26,41.7,38.5,31.7,41.2,37.1,24.0,98,95,73,30.38,29.85,7,1,9,2.88
2013-11-27,44.7,34.2,29.4,43.6,31.5,26.4,96,90,82,29.70,29.62,26,9,39,0.08
2013-11-29,51.9,39.6,32.0,26.8,22.8,18.7,73,52,35,30.62,30.51,4,1,13,0.01
2013-11-30,44.4,34.9,29.2,25.7,23.7,22.4,77,64,46,30.64,30.43,2,1,9,0.00